Seacod — DDPW — position and weather

sailwx.info

Track history (hours):
 
Tides and Currents Weather Stations Pressure Air Temp Water Temp Dewpoint Dewpoint Depression Visibility Wind Speed Wind Dir Waves Ship Positions

Seacod

Last reported at 2017-Dec-11 17:00 UTC. Time now 2017-Dec-13 03:42 UTC.
Position N 51°28' E 000°16'.

Length 188 m; draft 10 m.

Type: Tanker. MMSI: 218019000.

Date/timePositionNaut miles runAvg speedWind from/ knotsBaromVisibWave heightAir tempDewpointWater temp
2017-Dec-11 17:00N 51°28' E 000°16'0 0.0
2017-Dec-11 16:30N 51°28' E 000°16'0 0.0
2017-Dec-11 16:00N 51°28' E 000°16'0 0.0
2017-Dec-11 15:30N 51°28' E 000°16'0 0.0
2017-Dec-11 15:00N 51°28' E 000°16'0 0.0
2017-Dec-11 14:30N 51°28' E 000°16'0 0.0
2017-Dec-11 14:00N 51°28' E 000°16'0 0.0
2017-Dec-11 13:30N 51°28' E 000°16'0 0.0
2017-Dec-11 13:00N 51°28' E 000°16'0 0.0
2017-Dec-11 12:30N 51°28' E 000°16'0 0.0
2017-Dec-11 12:00N 51°28' E 000°16'0 0.0
2017-Dec-11 11:30N 51°28' E 000°16'0 0.0
2017-Dec-11 11:00N 51°28' E 000°16'0 0.0
2017-Dec-11 10:30N 51°28' E 000°16'0 0.0
2017-Dec-11 10:00N 51°28' E 000°16'0 0.0
2017-Dec-11 09:16N 51°28' E 000°16'0 0.0
2017-Dec-11 09:00N 51°28' E 000°16'0 0.1
2017-Dec-11 08:30N 51°28' E 000°16'1 2.5
2017-Dec-11 08:00N 51°28' E 000°18'4 7.1
2017-Dec-11 07:30N 51°27' E 000°24'5 9.5
2017-Dec-11 07:01N 51°30' E 000°29'713.3
2017-Dec-11 06:30N 51°30' E 000°40'714.4
2017-Dec-11 06:00N 51°29' E 000°52'1111.9
2017-Dec-11 05:05N 51°29' E 001°09'213.4
2017-Dec-11 04:58N 51°29' E 001°12'715.2
2017-Dec-11 04:31N 51°28' E 001°23'611.1
2017-Dec-11 04:00N 51°28' E 001°32'4 7.7
2017-Dec-11 03:30N 51°31' E 001°36'4 7.8
2017-Dec-11 03:00N 51°34' E 001°40'4 8.4
2017-Dec-11 02:30N 51°37' E 001°44'4 8.4
2017-Dec-11 02:00N 51°41' E 001°45'4 8.3
2017-Dec-11 01:30N 51°45' E 001°44'5 9.2
2017-Dec-11 01:00N 51°50' E 001°43'4 7.2
2017-Dec-11 00:25N 51°54' E 001°40'0 0.2
2017-Dec-10 23:58N 51°54' E 001°40'0 0.0
2017-Dec-10 23:25N 51°54' E 001°40'0 0.1
2017-Dec-10 22:58N 51°54' E 001°40'0 0.0
2017-Dec-10 22:16N 51°54' E 001°40'0 0.0
2017-Dec-10 21:31N 51°54' E 001°40'0 0.0
2017-Dec-10 19:52N 51°54' E 001°40'0 0.0
2017-Dec-10 19:01N 51°54' E 001°40'0 0.2
2017-Dec-10 18:58N 51°54' E 001°40'0 0.1
2017-Dec-10 18:28N 51°54' E 001°40'0 0.1
2017-Dec-10 17:52N 51°54' E 001°40'0 0.0
2017-Dec-10 17:22N 51°54' E 001°40'0 0.1
2017-Dec-10 16:58N 51°54' E 001°40'0 0.1
2017-Dec-10 16:25N 51°54' E 001°40'0 0.1
2017-Dec-10 15:58N 51°54' E 001°40'0 0.0
2017-Dec-10 15:22N 51°54' E 001°40'0 0.0
2017-Dec-10 14:58N 51°54' E 001°40'0 0.0
2017-Dec-10 14:25N 51°54' E 001°40'0 0.0
2017-Dec-10 13:58N 51°54' E 001°40'0 0.0
2017-Dec-10 13:16N 51°54' E 001°40'0 0.1
2017-Dec-10 12:55N 51°54' E 001°40'0 0.1
2017-Dec-10 12:28N 51°54' E 001°40'0 0.1
2017-Dec-10 12:00N 51°54' E 001°40'0 0.0
2017-Dec-10 11:22N 51°54' E 001°40'0 0.1
2017-Dec-10 10:58N 51°54' E 001°40'0 0.1
2017-Dec-10 10:25N 51°54' E 001°40'0 0.1
2017-Dec-10 09:58N 51°54' E 001°40'0 0.0
2017-Dec-10 09:28N 51°54' E 001°40'0 0.0
2017-Dec-10 08:58N 51°54' E 001°40'0 0.0
2017-Dec-10 08:25N 51°54' E 001°40'0 0.0
2017-Dec-10 07:58N 51°54' E 001°40'0 0.0
2017-Dec-10 07:22N 51°54' E 001°40'0 0.0
2017-Dec-10 06:58N 51°54' E 001°40'0 0.0
2017-Dec-10 06:25N 51°54' E 001°40'0 0.0
2017-Dec-10 05:58N 51°54' E 001°40'0 0.0
2017-Dec-10 05:28N 51°54' E 001°40'0 0.1
2017-Dec-10 04:58N 51°54' E 001°40'0 0.1
2017-Dec-10 04:25N 51°54' E 001°40'0 0.4
2017-Dec-10 04:00N 51°54' E 001°40'0 0.0
2017-Dec-10 03:26N 51°54' E 001°40'0 0.0
2017-Dec-10 02:59N 51°54' E 001°40'0 0.3
2017-Dec-10 02:25N 51°54' E 001°40'0 0.0
2017-Dec-10 01:57N 51°54' E 001°40'0 0.0
2017-Dec-10 01:30N 51°54' E 001°40'0 0.0
2017-Dec-10 00:54N 51°54' E 001°40'0 0.0
2017-Dec-10 00:27N 51°54' E 001°40'0 0.0
2017-Dec-09 23:52N 51°54' E 001°40'0 0.1
2017-Dec-09 23:21N 51°54' E 001°40'0 0.2
2017-Dec-09 23:00N 51°54' E 001°40'0 0.2
2017-Dec-09 22:30N 51°54' E 001°40'0 0.0
2017-Dec-09 21:54N 51°54' E 001°40'0 0.0
2017-Dec-09 21:30N 51°54' E 001°40'0 0.0
2017-Dec-09 20:56N 51°54' E 001°40'0 0.0
2017-Dec-09 20:29N 51°54' E 001°40'0 0.0
2017-Dec-09 19:59N 51°54' E 001°40'0 0.0
2017-Dec-09 19:29N 51°54' E 001°40'0 0.0
2017-Dec-09 18:56N 51°54' E 001°40'0 0.0
2017-Dec-09 18:29N 51°54' E 001°40'0 0.0
2017-Dec-09 17:59N 51°54' E 001°40'0 0.1
2017-Dec-09 17:29N 51°54' E 001°40'0 0.1
2017-Dec-09 16:59N 51°54' E 001°40'0 0.0
2017-Dec-09 16:29N 51°54' E 001°40'0 0.0
2017-Dec-09 15:59N 51°54' E 001°40'0 0.3
2017-Dec-09 15:29N 51°54' E 001°40'0 0.1
2017-Dec-09 14:59N 51°54' E 001°40'0 0.0
2017-Dec-09 14:26N 51°54' E 001°40'0 0.0
2017-Dec-09 13:59N 51°54' E 001°40'0 0.0
2017-Dec-09 13:29N 51°54' E 001°40'0 0.0
2017-Dec-09 12:59N 51°54' E 001°40'0 0.0
2017-Dec-09 12:29N 51°54' E 001°40'0 0.0
2017-Dec-09 11:56N 51°54' E 001°40'0 0.1
2017-Dec-09 11:26N 51°54' E 001°40'0 0.2
2017-Dec-09 10:59N 51°54' E 001°40'0 0.2
2017-Dec-09 10:29N 51°54' E 001°40'0 0.1
2017-Dec-09 09:56N 51°54' E 001°40'0 0.0
2017-Dec-09 09:29N 51°54' E 001°40'0 0.0
2017-Dec-09 08:59N 51°54' E 001°40'0 0.0
2017-Dec-09 08:29N 51°54' E 001°40'0 0.0
2017-Dec-09 07:59N 51°54' E 001°40'0 0.0
2017-Dec-09 07:29N 51°54' E 001°40'0 0.2
2017-Dec-09 07:00N 51°54' E 001°40'2 4.6
2017-Dec-09 06:30N 51°55' E 001°43'3 6.6
2017-Dec-09 06:01N 51°58' E 001°45'2 4.3
2017-Dec-09 05:31N 52°00' E 001°46'2 3.9
2017-Dec-09 05:00N 52°02' E 001°46'2 4.3
2017-Dec-09 04:31N 52°04' E 001°47'1 2.4
2017-Dec-09 04:01N 52°04' E 001°49'1 2.7
2017-Dec-09 03:30N 52°03' E 001°51'1 3.0
2017-Dec-09 03:00N 52°02' E 001°53'1 2.9
2017-Dec-09 02:30N 52°01' E 001°55'2 3.4
2017-Dec-09 02:00N 52°01' E 001°52'1 2.2
2017-Dec-09 01:30N 52°02' E 001°50'0 0.9
2017-Dec-09 01:01N 52°01' E 001°50'0 0.8
2017-Dec-09 00:30N 52°01' E 001°50'0 0.8
2017-Dec-09 00:01N 52°00' E 001°50'0 0.7
2017-Dec-08 23:30N 52°00' E 001°50'0 0.6
2017-Dec-08 23:00N 51°60' E 001°50'0 0.8
2017-Dec-08 22:30N 51°59' E 001°50'1 1.5
2017-Dec-08 22:00N 51°59' E 001°50'1 2.0
2017-Dec-08 21:30N 51°58' E 001°50'1 2.8
2017-Dec-08 21:00N 51°56' E 001°49'1 2.9
2017-Dec-08 20:30N 51°55' E 001°48'2 3.3
2017-Dec-08 20:00N 51°53' E 001°48'2 3.7
2017-Dec-08 19:30N 51°51' E 001°49'4 7.3
2017-Dec-08 19:00N 51°50' E 001°55'511.0
2017-Dec-08 18:30N 51°53' E 002°03'9810.9
2017-Dec-08 09:34N 53°16' E 003°27'110.9
2017-Dec-08 09:29N 53°17' E 003°28'4210.6
2017-Dec-08 05:28N 53°53' E 004°03'811.1
2017-Dec-08 04:46N 53°58' E 004°14'411.0
2017-Dec-08 04:26N 54°00' E 004°19'511.1
2017-Dec-08 04:00N 54°04' E 004°24'610.8
2017-Dec-08 03:29N 54°08' E 004°30'  
2017-Dec-01 21:18N 55°25' E 015°48'1012.1
2017-Dec-01 20:28N 55°25' E 015°31'612.1
2017-Dec-01 20:00N 55°24' E 015°21'612.3
2017-Dec-01 19:30N 55°24' E 015°10'612.3
2017-Dec-01 19:00N 55°23' E 014°59'612.2
2017-Dec-01 18:30N 55°23' E 014°48'611.2
2017-Dec-01 18:00N 55°22' E 014°39'611.8
2017-Dec-01 17:30N 55°18' E 014°32'  
Track history (hours):
 
Tides and Currents Weather Stations Pressure Air Temp Water Temp Dewpoint Dewpoint Depression Visibility Wind Speed Wind Dir Waves Ship Positions

Seacod

Last reported at 2017-Dec-11 17:00 UTC. Time now 2017-Dec-13 03:42 UTC.
Position N 51°28' E 000°16'.

Length 188 m; draft 10 m.

Type: Tanker. MMSI: 218019000.

Date/timePositionNaut miles runAvg speedWind from/ knotsBaromVisibWave heightAir tempDewpointWater temp
2017-Dec-11 17:00N 51°28' E 000°16'0 0.0
2017-Dec-11 16:30N 51°28' E 000°16'0 0.0
2017-Dec-11 16:00N 51°28' E 000°16'0 0.0
2017-Dec-11 15:30N 51°28' E 000°16'0 0.0
2017-Dec-11 15:00N 51°28' E 000°16'0 0.0
2017-Dec-11 14:30N 51°28' E 000°16'0 0.0
2017-Dec-11 14:00N 51°28' E 000°16'0 0.0
2017-Dec-11 13:30N 51°28' E 000°16'0 0.0
2017-Dec-11 13:00N 51°28' E 000°16'0 0.0
2017-Dec-11 12:30N 51°28' E 000°16'0 0.0
2017-Dec-11 12:00N 51°28' E 000°16'0 0.0
2017-Dec-11 11:30N 51°28' E 000°16'0 0.0
2017-Dec-11 11:00N 51°28' E 000°16'0 0.0
2017-Dec-11 10:30N 51°28' E 000°16'0 0.0
2017-Dec-11 10:00N 51°28' E 000°16'0 0.0
2017-Dec-11 09:16N 51°28' E 000°16'0 0.0
2017-Dec-11 09:00N 51°28' E 000°16'0 0.1
2017-Dec-11 08:30N 51°28' E 000°16'1 2.5
2017-Dec-11 08:00N 51°28' E 000°18'4 7.1
2017-Dec-11 07:30N 51°27' E 000°24'5 9.5
2017-Dec-11 07:01N 51°30' E 000°29'713.3
2017-Dec-11 06:30N 51°30' E 000°40'714.4
2017-Dec-11 06:00N 51°29' E 000°52'1111.9
2017-Dec-11 05:05N 51°29' E 001°09'213.4
2017-Dec-11 04:58N 51°29' E 001°12'715.2
2017-Dec-11 04:31N 51°28' E 001°23'611.1
2017-Dec-11 04:00N 51°28' E 001°32'4 7.7
2017-Dec-11 03:30N 51°31' E 001°36'4 7.8
2017-Dec-11 03:00N 51°34' E 001°40'4 8.4
2017-Dec-11 02:30N 51°37' E 001°44'4 8.4
2017-Dec-11 02:00N 51°41' E 001°45'4 8.3
2017-Dec-11 01:30N 51°45' E 001°44'5 9.2
2017-Dec-11 01:00N 51°50' E 001°43'4 7.2
2017-Dec-11 00:25N 51°54' E 001°40'0 0.2
2017-Dec-10 23:58N 51°54' E 001°40'0 0.0
2017-Dec-10 23:25N 51°54' E 001°40'0 0.1
2017-Dec-10 22:58N 51°54' E 001°40'0 0.0
2017-Dec-10 22:16N 51°54' E 001°40'0 0.0
2017-Dec-10 21:31N 51°54' E 001°40'0 0.0
2017-Dec-10 19:52N 51°54' E 001°40'0 0.0
2017-Dec-10 19:01N 51°54' E 001°40'0 0.2
2017-Dec-10 18:58N 51°54' E 001°40'0 0.1
2017-Dec-10 18:28N 51°54' E 001°40'0 0.1
2017-Dec-10 17:52N 51°54' E 001°40'0 0.0
2017-Dec-10 17:22N 51°54' E 001°40'0 0.1
2017-Dec-10 16:58N 51°54' E 001°40'0 0.1
2017-Dec-10 16:25N 51°54' E 001°40'0 0.1
2017-Dec-10 15:58N 51°54' E 001°40'0 0.0
2017-Dec-10 15:22N 51°54' E 001°40'0 0.0
2017-Dec-10 14:58N 51°54' E 001°40'0 0.0
2017-Dec-10 14:25N 51°54' E 001°40'0 0.0
2017-Dec-10 13:58N 51°54' E 001°40'0 0.0
2017-Dec-10 13:16N 51°54' E 001°40'0 0.1
2017-Dec-10 12:55N 51°54' E 001°40'0 0.1
2017-Dec-10 12:28N 51°54' E 001°40'0 0.1
2017-Dec-10 12:00N 51°54' E 001°40'0 0.0
2017-Dec-10 11:22N 51°54' E 001°40'0 0.1
2017-Dec-10 10:58N 51°54' E 001°40'0 0.1
2017-Dec-10 10:25N 51°54' E 001°40'0 0.1
2017-Dec-10 09:58N 51°54' E 001°40'0 0.0
2017-Dec-10 09:28N 51°54' E 001°40'0 0.0
2017-Dec-10 08:58N 51°54' E 001°40'0 0.0
2017-Dec-10 08:25N 51°54' E 001°40'0 0.0
2017-Dec-10 07:58N 51°54' E 001°40'0 0.0
2017-Dec-10 07:22N 51°54' E 001°40'0 0.0
2017-Dec-10 06:58N 51°54' E 001°40'0 0.0
2017-Dec-10 06:25N 51°54' E 001°40'0 0.0
2017-Dec-10 05:58N 51°54' E 001°40'0 0.0
2017-Dec-10 05:28N 51°54' E 001°40'0 0.1
2017-Dec-10 04:58N 51°54' E 001°40'0 0.1
2017-Dec-10 04:25N 51°54' E 001°40'0 0.4
2017-Dec-10 04:00N 51°54' E 001°40'0 0.0
2017-Dec-10 03:26N 51°54' E 001°40'0 0.0
2017-Dec-10 02:59N 51°54' E 001°40'0 0.3
2017-Dec-10 02:25N 51°54' E 001°40'0 0.0
2017-Dec-10 01:57N 51°54' E 001°40'0 0.0
2017-Dec-10 01:30N 51°54' E 001°40'0 0.0
2017-Dec-10 00:54N 51°54' E 001°40'0 0.0
2017-Dec-10 00:27N 51°54' E 001°40'0 0.0
2017-Dec-09 23:52N 51°54' E 001°40'0 0.1
2017-Dec-09 23:21N 51°54' E 001°40'0 0.2
2017-Dec-09 23:00N 51°54' E 001°40'0 0.2
2017-Dec-09 22:30N 51°54' E 001°40'0 0.0
2017-Dec-09 21:54N 51°54' E 001°40'0 0.0
2017-Dec-09 21:30N 51°54' E 001°40'0 0.0
2017-Dec-09 20:56N 51°54' E 001°40'0 0.0
2017-Dec-09 20:29N 51°54' E 001°40'0 0.0
2017-Dec-09 19:59N 51°54' E 001°40'0 0.0
2017-Dec-09 19:29N 51°54' E 001°40'0 0.0
2017-Dec-09 18:56N 51°54' E 001°40'0 0.0
2017-Dec-09 18:29N 51°54' E 001°40'0 0.0
2017-Dec-09 17:59N 51°54' E 001°40'0 0.1
2017-Dec-09 17:29N 51°54' E 001°40'0 0.1
2017-Dec-09 16:59N 51°54' E 001°40'0 0.0
2017-Dec-09 16:29N 51°54' E 001°40'0 0.0
2017-Dec-09 15:59N 51°54' E 001°40'0 0.3
2017-Dec-09 15:29N 51°54' E 001°40'0 0.1
2017-Dec-09 14:59N 51°54' E 001°40'0 0.0
2017-Dec-09 14:26N 51°54' E 001°40'0 0.0
2017-Dec-09 13:59N 51°54' E 001°40'0 0.0
2017-Dec-09 13:29N 51°54' E 001°40'0 0.0
2017-Dec-09 12:59N 51°54' E 001°40'0 0.0
2017-Dec-09 12:29N 51°54' E 001°40'0 0.0
2017-Dec-09 11:56N 51°54' E 001°40'0 0.1
2017-Dec-09 11:26N 51°54' E 001°40'0 0.2
2017-Dec-09 10:59N 51°54' E 001°40'0 0.2
2017-Dec-09 10:29N 51°54' E 001°40'0 0.1
2017-Dec-09 09:56N 51°54' E 001°40'0 0.0
2017-Dec-09 09:29N 51°54' E 001°40'0 0.0
2017-Dec-09 08:59N 51°54' E 001°40'0 0.0
2017-Dec-09 08:29N 51°54' E 001°40'0 0.0
2017-Dec-09 07:59N 51°54' E 001°40'0 0.0
2017-Dec-09 07:29N 51°54' E 001°40'0 0.2
2017-Dec-09 07:00N 51°54' E 001°40'2 4.6
2017-Dec-09 06:30N 51°55' E 001°43'3 6.6
2017-Dec-09 06:01N 51°58' E 001°45'2 4.3
2017-Dec-09 05:31N 52°00' E 001°46'2 3.9
2017-Dec-09 05:00N 52°02' E 001°46'2 4.3
2017-Dec-09 04:31N 52°04' E 001°47'1 2.4
2017-Dec-09 04:01N 52°04' E 001°49'1 2.7
2017-Dec-09 03:30N 52°03' E 001°51'1 3.0
2017-Dec-09 03:00N 52°02' E 001°53'1 2.9
2017-Dec-09 02:30N 52°01' E 001°55'2 3.4
2017-Dec-09 02:00N 52°01' E 001°52'1 2.2
2017-Dec-09 01:30N 52°02' E 001°50'0 0.9
2017-Dec-09 01:01N 52°01' E 001°50'0 0.8
2017-Dec-09 00:30N 52°01' E 001°50'0 0.8
2017-Dec-09 00:01N 52°00' E 001°50'0 0.7
2017-Dec-08 23:30N 52°00' E 001°50'0 0.6
2017-Dec-08 23:00N 51°60' E 001°50'0 0.8
2017-Dec-08 22:30N 51°59' E 001°50'1 1.5
2017-Dec-08 22:00N 51°59' E 001°50'1 2.0
2017-Dec-08 21:30N 51°58' E 001°50'1 2.8
2017-Dec-08 21:00N 51°56' E 001°49'1 2.9
2017-Dec-08 20:30N 51°55' E 001°48'2 3.3
2017-Dec-08 20:00N 51°53' E 001°48'2 3.7
2017-Dec-08 19:30N 51°51' E 001°49'4 7.3
2017-Dec-08 19:00N 51°50' E 001°55'511.0
2017-Dec-08 18:30N 51°53' E 002°03'9810.9
2017-Dec-08 09:34N 53°16' E 003°27'110.9
2017-Dec-08 09:29N 53°17' E 003°28'4210.6
2017-Dec-08 05:28N 53°53' E 004°03'811.1
2017-Dec-08 04:46N 53°58' E 004°14'411.0
2017-Dec-08 04:26N 54°00' E 004°19'511.1
2017-Dec-08 04:00N 54°04' E 004°24'610.8
2017-Dec-08 03:29N 54°08' E 004°30'  
2017-Dec-01 21:18N 55°25' E 015°48'1012.1
2017-Dec-01 20:28N 55°25' E 015°31'612.1
2017-Dec-01 20:00N 55°24' E 015°21'612.3
2017-Dec-01 19:30N 55°24' E 015°10'612.3
2017-Dec-01 19:00N 55°23' E 014°59'612.2
2017-Dec-01 18:30N 55°23' E 014°48'611.2
2017-Dec-01 18:00N 55°22' E 014°39'611.8
2017-Dec-01 17:30N 55°18' E 014°32'  

Dump ship's entire track history